Time;durP1;ratioP1;P1;durP2;ratioP2;P2;SDS_P1;SDS_P2;PMS_P1;PMS_P2;Temp;Humidity;BMP_temperature;BMP_pressure;BME280_temperature;BME280_humidity;BME280_pressure;Samples;Min_cycle;Max_cycle;Signal;HPM_P1;HPM_P2
2022/07/26 00:02:24;;;;;;;;;;;;;;;18.13;62.13;99899.42;1417006;90;20302;-82
2022/07/26 00:04:50;;;;;;;;;;;;;;;18.12;61.97;99902.30;1437971;90;20364;-82
2022/07/26 00:07:16;;;;;;;;;;;;;;;18.10;61.59;99899.03;1436175;90;20337;-82
2022/07/26 00:09:42;;;;;;;;;;;;;;;18.07;63.68;99897.59;1435589;90;20310;-82
2022/07/26 00:12:09;;;;;;;;;;;;;;;18.01;63.16;99896.57;1448345;90;20979;-82
2022/07/26 00:14:35;;;;;;;;;;;;;;;17.97;63.20;99902.53;1427432;91;20340;-82
2022/07/26 00:17:02;;;;;;;;;;;;;;;17.95;62.80;99900.58;1426724;91;20401;-80
2022/07/26 00:19:28;;;;;;;;;;;;;;;17.92;64.78;99905.01;1427635;91;20317;-82
2022/07/26 00:22:38;;;;;;;;;;;;;;;17.81;65.05;99905.15;1428288;91;20309;-82
2022/07/26 00:24:25;;;;;;;;;;;;;;;17.75;64.83;99907.26;1408988;91;20318;-83
2022/07/26 00:26:52;;;;;;;;;;;;;;;17.70;64.95;99904.41;1437400;91;20265;-83
2022/07/26 00:29:18;;;;;;;;;;;;;;;17.58;63.62;99901.00;1435337;91;21069;-83
2022/07/26 00:31:43;;;;;;;;;;;;;;;17.39;64.58;99903.67;1377821;92;20421;-83
2022/07/26 00:34:09;;;;;;;;;;;;;;;17.25;65.62;99909.00;1409060;92;20293;-83
2022/07/26 00:36:35;;;;;;;;;;;;;;;17.14;65.95;99909.08;1412024;92;20903;-82
2022/07/26 00:39:01;;;;;;;;;;;;;;;17.05;66.71;99907.63;1409105;92;20317;-83
2022/07/26 00:41:27;;;;;;;;;;;;;;;16.97;65.37;99898.45;1412559;92;21086;-83
2022/07/26 00:43:56;;;;;;;;;;;;;;;16.89;66.26;99901.33;1390757;92;20472;-83
2022/07/26 00:46:22;;;;;;;;;;;;;;;16.82;67.27;99897.80;1410357;92;20339;-81
2022/07/26 00:48:49;;;;;;;;;;;;;;;16.77;67.32;99902.91;1417795;92;20520;-83
2022/07/26 00:51:15;;;;;;;;;;;;;;;16.74;67.99;99901.44;1393614;92;20286;-82
2022/07/26 00:53:41;;;;;;;;;;;;;;;16.72;67.33;99902.69;1409314;92;20301;-83
2022/07/26 00:56:07;;;;;;;;;;;;;;;16.72;67.49;99904.02;1413658;92;20792;-83
2022/07/26 00:58:33;;;;;;;;;;;;;;;16.70;67.91;99905.03;1413018;92;20285;-82
2022/07/26 01:00:59;;;;;;;;;;;;;;;16.70;67.97;99903.69;1391727;92;20338;-82
2022/07/26 01:03:25;;;;;;;;;;;;;;;16.72;67.42;99910.70;1414888;92;20888;-82
2022/07/26 01:05:53;;;;;;;;;;;;;;;16.72;68.25;99902.69;1427669;91;20324;-82
2022/07/26 01:08:19;;;;;;;;;;;;;;;16.70;68.79;99909.03;1436350;89;20918;-82
2022/07/26 01:10:44;;;;;;;;;;;;;;;16.64;68.75;99907.16;1444132;91;20309;-82
2022/07/26 01:13:12;;;;;;;;;;;;;;;16.56;68.92;99903.84;1416416;91;20372;-82
2022/07/26 01:15:37;;;;;;;;;;;;;;;16.53;68.97;99902.39;1438983;89;20443;-83
2022/07/26 01:18:03;;;;;;;;;;;;;;;16.51;68.46;99901.76;1419720;89;20303;-83
2022/07/26 01:20:29;;;;;;;;;;;;;;;16.51;69.00;99895.59;1426054;91;20976;-82
2022/07/26 01:22:55;;;;;;;;;;;;;;;16.51;68.55;99897.75;1411973;92;20283;-83
2022/07/26 01:25:30;;;;;;;;;;;;;;;16.51;69.23;99893.74;1423283;89;20310;-83
2022/07/26 01:27:56;;;;;;;;;;;;;;;16.50;69.45;99889.44;1436664;90;20395;-83
2022/07/26 01:30:22;;;;;;;;;;;;;;;16.48;69.05;99890.14;1428940;90;20992;-83
2022/07/26 01:32:48;;;;;;;;;;;;;;;16.46;68.81;99892.20;1441028;90;20295;-83
2022/07/26 01:35:14;;;;;;;;;;;;;;;16.44;68.92;99885.71;1424809;90;20823;-83
2022/07/26 01:37:40;;;;;;;;;;;;;;;16.41;69.69;99882.62;1428221;90;20347;-84
2022/07/26 01:40:09;;;;;;;;;;;;;;;16.39;69.35;99893.48;1442971;90;20287;-84
2022/07/26 01:42:35;;;;;;;;;;;;;;;16.36;69.68;99887.73;1422142;91;21154;-84
2022/07/26 01:45:01;;;;;;;;;;;;;;;16.34;69.11;99881.27;1417228;91;20423;-83
2022/07/26 01:47:27;;;;;;;;;;;;;;;16.30;69.92;99880.00;1414498;93;20320;-83
2022/07/26 01:49:53;;;;;;;;;;;;;;;16.26;69.35;99882.77;1421150;90;20273;-83
2022/07/26 01:52:19;;;;;;;;;;;;;;;16.24;69.73;99876.79;1431480;90;20302;-83
2022/07/26 01:54:45;;;;;;;;;;;;;;;16.20;69.05;99880.38;1415052;91;20295;-83
2022/07/26 01:57:10;;;;;;;;;;;;;;;16.16;70.27;99872.94;1449052;89;20374;-82
2022/07/26 01:59:36;;;;;;;;;;;;;;;16.11;70.30;99877.56;1437831;91;20380;-81
2022/07/26 02:02:02;;;;;;;;;;;;;;;16.04;70.62;99875.86;1434198;90;20339;-81
2022/07/26 02:07:13;;;;;;;;;;;;;;;15.98;71.08;99868.12;1436063;90;20310;-82
2022/07/26 02:09:39;;;;;;;;;;;;;;;15.95;70.69;99877.86;1426444;89;20295;-81
2022/07/26 02:12:05;;;;;;;;;;;;;;;15.94;71.28;99877.05;1436832;90;20941;-82
2022/07/26 02:14:31;;;;;;;;;;;;;;;15.99;70.82;99873.77;1414696;91;20236;-81
2022/07/26 02:16:58;;;;;;;;;;;;;;;16.04;70.62;99871.34;1412156;91;20482;-82
2022/07/26 02:19:27;;;;;;;;;;;;;;;16.07;70.56;99868.28;1440551;90;20378;-82
2022/07/26 02:21:54;;;;;;;;;;;;;;;16.09;69.72;99867.58;1454033;89;20300;-82
2022/07/26 02:24:20;;;;;;;;;;;;;;;16.08;70.00;99869.91;1454732;90;20382;-82
2022/07/26 02:26:46;;;;;;;;;;;;;;;16.06;70.29;99868.48;1453820;90;20279;-82
2022/07/26 02:29:12;;;;;;;;;;;;;;;16.04;70.18;99872.67;1452855;90;21527;-83
2022/07/26 02:31:38;;;;;;;;;;;;;;;16.03;69.92;99860.88;1424746;89;20312;-83
2022/07/26 02:34:04;;;;;;;;;;;;;;;16.00;69.73;99862.91;1424403;90;20326;-83
2022/07/26 02:36:29;;;;;;;;;;;;;;;16.00;68.69;99870.09;1425668;90;20795;-83
2022/07/26 02:38:55;;;;;;;;;;;;;;;16.00;69.12;99863.42;1409215;91;20364;-82
2022/07/26 02:41:21;;;;;;;;;;;;;;;15.97;70.24;99861.97;1432698;91;20272;-83
2022/07/26 02:43:47;;;;;;;;;;;;;;;15.95;70.03;99865.85;1441321;90;20259;-83
2022/07/26 02:46:13;;;;;;;;;;;;;;;15.93;70.94;99858.55;1402524;92;20310;-83
2022/07/26 02:48:39;;;;;;;;;;;;;;;15.92;69.97;99862.25;1413845;92;20294;-83
2022/07/26 02:51:05;;;;;;;;;;;;;;;15.88;71.71;99860.97;1423629;91;20332;-83
2022/07/26 02:53:31;;;;;;;;;;;;;;;15.86;70.71;99863.03;1420403;92;21581;-83
2022/07/26 02:55:57;;;;;;;;;;;;;;;15.83;71.09;99863.42;1423163;91;20334;-83
2022/07/26 02:58:25;;;;;;;;;;;;;;;15.82;72.10;99857.23;1425140;91;20272;-83
2022/07/26 03:00:51;;;;;;;;;;;;;;;15.83;71.36;99852.23;1431269;91;20370;-83
2022/07/26 03:03:17;;;;;;;;;;;;;;;15.85;71.27;99853.36;1427193;90;20354;-83
2022/07/26 03:05:43;;;;;;;;;;;;;;;15.84;71.34;99855.20;1414436;91;20488;-83
2022/07/26 03:08:09;;;;;;;;;;;;;;;15.83;71.06;99848.75;1444942;90;20364;-82
2022/07/26 03:10:35;;;;;;;;;;;;;;;15.84;70.74;99847.72;1440893;90;20330;-82
2022/07/26 03:13:01;;;;;;;;;;;;;;;15.83;71.24;99844.75;1455061;90;20300;-83
2022/07/26 03:15:27;;;;;;;;;;;;;;;15.82;71.65;99845.23;1461247;90;20367;-83
2022/07/26 03:17:54;;;;;;;;;;;;;;;15.82;71.61;99853.75;1454105;90;20314;-83
2022/07/26 03:20:20;;;;;;;;;;;;;;;15.80;71.31;99851.30;1454292;90;20307;-82
2022/07/26 03:22:45;;;;;;;;;;;;;;;15.78;71.59;99859.48;1460319;90;20345;-82
2022/07/26 03:25:11;;;;;;;;;;;;;;;15.74;72.54;99863.57;1457063;90;20932;-82
2022/07/26 03:27:37;;;;;;;;;;;;;;;15.74;72.79;99865.42;1425112;89;20277;-82
2022/07/26 03:30:04;;;;;;;;;;;;;;;15.75;72.86;99869.21;1451973;90;20835;-81
2022/07/26 03:32:30;;;;;;;;;;;;;;;15.77;72.98;99874.36;1444543;89;20322;-81
2022/07/26 03:34:56;;;;;;;;;;;;;;;15.75;73.00;99870.55;1452953;89;20337;-81
2022/07/26 03:37:22;;;;;;;;;;;;;;;15.74;73.08;99864.91;1425695;89;21022;-82
2022/07/26 03:39:48;;;;;;;;;;;;;;;15.74;73.06;99868.91;1416998;91;20332;-81
2022/07/26 03:42:14;;;;;;;;;;;;;;;15.71;72.74;99860.48;1411251;90;20293;-81
2022/07/26 03:44:41;;;;;;;;;;;;;;;15.70;71.57;99858.29;1445576;90;20954;-82
2022/07/26 03:47:07;;;;;;;;;;;;;;;15.70;72.23;99860.14;1450719;89;20344;-82
2022/07/26 03:49:33;;;;;;;;;;;;;;;15.69;73.13;99854.50;1435215;90;20327;-83
2022/07/26 03:51:59;;;;;;;;;;;;;;;15.72;73.57;99852.77;1422507;90;20850;-82
2022/07/26 03:54:25;;;;;;;;;;;;;;;15.78;73.42;99847.98;1434631;90;20274;-83
2022/07/26 03:56:51;;;;;;;;;;;;;;;15.85;72.36;99848.02;1410993;91;20355;-81
2022/07/26 03:59:21;;;;;;;;;;;;;;;15.90;72.94;99846.93;1428301;91;20324;-81
2022/07/26 04:01:47;;;;;;;;;;;;;;;15.95;70.87;99858.66;1419599;91;20326;-83
2022/07/26 04:04:16;;;;;;;;;;;;;;;16.04;72.06;99859.84;1417820;90;20310;-82
2022/07/26 04:06:43;;;;;;;;;;;;;;;16.10;71.86;99864.39;1444218;90;20778;-82
2022/07/26 04:09:10;;;;;;;;;;;;;;;16.20;71.59;99863.02;1437273;89;20414;-83
2022/07/26 04:11:36;;;;;;;;;;;;;;;16.32;70.87;99865.13;1438084;89;20322;-83
2022/07/26 04:14:02;;;;;;;;;;;;;;;16.43;70.46;99869.91;1450254;90;21218;-83
2022/07/26 04:16:28;;;;;;;;;;;;;;;16.50;70.58;99868.59;1425029;90;20267;-84
2022/07/26 04:18:54;;;;;;;;;;;;;;;16.58;69.88;99861.22;1410403;91;20280;-84
2022/07/26 04:21:21;;;;;;;;;;;;;;;16.67;69.48;99858.67;1402234;91;20288;-84
2022/07/26 04:23:47;;;;;;;;;;;;;;;16.76;69.06;99856.67;1421634;89;20307;-84
2022/07/26 04:26:13;;;;;;;;;;;;;;;16.86;70.16;99859.80;1434151;89;20303;-85
2022/07/26 04:28:41;;;;;;;;;;;;;;;16.93;70.62;99865.14;1435951;90;20324;-81
2022/07/26 04:31:07;;;;;;;;;;;;;;;16.99;71.88;99863.52;1432280;90;20361;-82
2022/07/26 04:33:33;;;;;;;;;;;;;;;17.02;70.80;99857.23;1453112;90;21081;-81
2022/07/26 04:35:59;;;;;;;;;;;;;;;17.12;69.92;99861.69;1440810;90;20244;-81
2022/07/26 04:38:25;;;;;;;;;;;;;;;17.20;70.99;99867.84;1406385;93;20232;-82
2022/07/26 04:40:51;;;;;;;;;;;;;;;17.29;70.05;99868.80;1409283;91;20371;-82
2022/07/26 04:43:18;;;;;;;;;;;;;;;17.41;69.29;99860.16;1405265;93;20350;-82
2022/07/26 04:45:45;;;;;;;;;;;;;;;17.55;69.33;99863.96;1408096;93;20305;-81
2022/07/26 04:48:11;;;;;;;;;;;;;;;17.68;69.24;99864.97;1408392;93;20754;-81
2022/07/26 04:50:37;;;;;;;;;;;;;;;17.79;68.59;99861.70;1402103;93;20297;-82
2022/07/26 04:53:02;;;;;;;;;;;;;;;17.92;68.07;99860.31;1380571;93;20263;-82
2022/07/26 04:55:29;;;;;;;;;;;;;;;18.01;67.57;99852.39;1434708;90;20309;-82
2022/07/26 04:57:55;;;;;;;;;;;;;;;18.14;67.24;99847.50;1431390;89;21149;-82
2022/07/26 05:00:25;;;;;;;;;;;;;;;18.28;67.08;99846.94;1448163;89;20288;-82
2022/07/26 05:02:54;;;;;;;;;;;;;;;18.40;67.16;99850.59;1427194;91;20363;-82
2022/07/26 05:05:21;;;;;;;;;;;;;;;18.53;66.60;99848.87;1425051;91;20266;-82
2022/07/26 05:07:50;;;;;;;;;;;;;;;18.65;66.22;99844.52;1432639;91;20317;-82
2022/07/26 05:10:18;;;;;;;;;;;;;;;18.76;65.41;99843.02;1428822;91;20302;-82
2022/07/26 05:12:48;;;;;;;;;;;;;;;18.87;64.80;99845.86;1429241;91;20388;-81
2022/07/26 05:15:14;;;;;;;;;;;;;;;18.98;64.50;99844.33;1427030;91;20899;-81
2022/07/26 05:17:42;;;;;;;;;;;;;;;19.11;62.92;99847.45;1430051;90;20335;-81
2022/07/26 05:20:10;;;;;;;;;;;;;;;19.26;62.79;99843.92;1438029;89;20800;-81
2022/07/26 05:22:36;;;;;;;;;;;;;;;19.42;62.36;99847.09;1433283;90;20356;-81
2022/07/26 05:25:04;;;;;;;;;;;;;;;19.58;61.56;99842.52;1424170;90;20287;-81
2022/07/26 05:27:30;;;;;;;;;;;;;;;19.75;61.56;99842.27;1443585;89;20321;-80
2022/07/26 05:29:56;;;;;;;;;;;;;;;19.93;59.89;99846.02;1464250;89;20322;-80
2022/07/26 05:32:22;;;;;;;;;;;;;;;20.08;57.84;99841.09;1411433;92;20547;-81
2022/07/26 05:34:48;;;;;;;;;;;;;;;20.23;58.34;99839.39;1412768;89;20297;-81
2022/07/26 05:37:14;;;;;;;;;;;;;;;20.40;59.14;99847.14;1457719;89;20291;-81
2022/07/26 05:39:40;;;;;;;;;;;;;;;20.59;59.43;99845.25;1456917;89;20894;-81
2022/07/26 05:42:06;;;;;;;;;;;;;;;20.77;59.50;99842.22;1430027;89;20400;-81
2022/07/26 05:44:32;;;;;;;;;;;;;;;20.96;58.81;99841.13;1422653;91;20348;-81
2022/07/26 05:46:58;;;;;;;;;;;;;;;21.13;57.80;99839.41;1419280;91;20279;-81
2022/07/26 05:49:28;;;;;;;;;;;;;;;21.33;57.70;99839.62;1441958;89;20314;-81
2022/07/26 05:51:52;;;;;;;;;;;;;;;21.51;57.73;99834.15;1445606;89;20492;-81
2022/07/26 05:54:19;;;;;;;;;;;;;;;21.70;56.42;99829.48;1427270;92;20325;-81
2022/07/26 05:56:46;;;;;;;;;;;;;;;21.88;54.58;99823.66;1466184;89;20278;-82
2022/07/26 05:59:12;;;;;;;;;;;;;;;22.04;54.86;99817.02;1469911;89;20284;-81
2022/07/26 06:01:38;;;;;;;;;;;;;;;22.22;54.79;99814.71;1468725;89;20352;-81
2022/07/26 06:04:04;;;;;;;;;;;;;;;22.37;53.26;99808.80;1427724;89;20287;-80
2022/07/26 06:06:30;;;;;;;;;;;;;;;22.55;53.67;99813.17;1461837;89;20368;-81
2022/07/26 06:08:56;;;;;;;;;;;;;;;22.70;52.98;99817.52;1458230;89;20874;-80
2022/07/26 06:11:22;;;;;;;;;;;;;;;22.87;51.81;99811.31;1446401;89;20392;-81
2022/07/26 06:13:48;;;;;;;;;;;;;;;23.02;50.88;99808.93;1430573;89;20377;-81
2022/07/26 06:16:13;;;;;;;;;;;;;;;23.19;49.86;99804.35;1429497;89;20341;-82
2022/07/26 06:18:39;;;;;;;;;;;;;;;23.36;50.77;99803.00;1429435;91;20295;-82
2022/07/26 06:21:06;;;;;;;;;;;;;;;23.56;50.94;99808.39;1435902;91;20280;-81
2022/07/26 06:23:32;;;;;;;;;;;;;;;23.72;48.04;99808.13;1430468;89;20288;-81
2022/07/26 06:25:58;;;;;;;;;;;;;;;23.89;47.51;99812.14;1428261;89;20876;-82
2022/07/26 06:28:24;;;;;;;;;;;;;;;24.04;47.02;99801.52;1436779;91;20340;-82
2022/07/26 06:30:50;;;;;;;;;;;;;;;24.19;46.91;99805.74;1425748;89;20274;-82
2022/07/26 06:33:16;;;;;;;;;;;;;;;24.37;47.29;99807.83;1430672;89;20289;-81
2022/07/26 06:35:42;;;;;;;;;;;;;;;24.52;46.78;99799.94;1424825;89;20290;-82
2022/07/26 06:38:08;;;;;;;;;;;;;;;24.66;43.52;99799.81;1425854;89;20289;-82
2022/07/26 06:40:35;;;;;;;;;;;;;;;24.80;44.03;99793.96;1422938;89;20440;-82
2022/07/26 06:43:01;;;;;;;;;;;;;;;24.95;44.82;99803.59;1429519;89;20310;-82
2022/07/26 06:45:28;;;;;;;;;;;;;;;25.09;43.13;99799.89;1439890;89;20299;-81
2022/07/26 06:47:54;;;;;;;;;;;;;;;25.23;44.21;99803.02;1438153;89;20876;-81
2022/07/26 06:50:21;;;;;;;;;;;;;;;25.37;43.45;99795.53;1445831;89;20510;-81
2022/07/26 06:52:49;;;;;;;;;;;;;;;25.48;40.05;99799.14;1429649;89;20436;-81
2022/07/26 06:55:15;;;;;;;;;;;;;;;25.63;42.15;99797.86;1438274;89;21894;-81
2022/07/26 06:57:41;;;;;;;;;;;;;;;25.76;38.72;99789.01;1435140;89;20353;-81
2022/07/26 07:00:08;;;;;;;;;;;;;;;25.85;39.54;99793.69;1443598;89;20354;-80
2022/07/26 07:02:35;;;;;;;;;;;;;;;25.98;40.51;99792.41;1436272;89;20406;-80
2022/07/26 07:05:02;;;;;;;;;;;;;;;26.13;38.30;99786.22;1432427;89;20296;-80
2022/07/26 07:07:29;;;;;;;;;;;;;;;26.23;39.59;99783.52;1436349;89;20402;-81
2022/07/26 07:09:54;;;;;;;;;;;;;;;26.34;39.72;99788.44;1432498;89;21106;-81
2022/07/26 07:12:20;;;;;;;;;;;;;;;26.45;37.56;99786.03;1442616;89;20376;-81
2022/07/26 07:14:46;;;;;;;;;;;;;;;26.59;39.35;99782.84;1437273;89;20407;-81
2022/07/26 07:17:14;;;;;;;;;;;;;;;26.69;37.61;99787.72;1441307;89;20302;-81
2022/07/26 07:19:40;;;;;;;;;;;;;;;26.83;38.83;99786.66;1433834;89;20404;-81
2022/07/26 07:22:10;;;;;;;;;;;;;;;26.93;35.93;99785.31;1432552;89;20352;-81
2022/07/26 07:24:34;;;;;;;;;;;;;;;27.06;36.82;99789.92;1431848;89;20287;-81
2022/07/26 07:27:00;;;;;;;;;;;;;;;27.12;35.31;99784.75;1434434;89;21253;-80
2022/07/26 07:29:26;;;;;;;;;;;;;;;27.17;36.97;99788.86;1433556;89;20324;-81
2022/07/26 07:31:55;;;;;;;;;;;;;;;27.26;38.02;99784.50;1426660;89;20310;-80
2022/07/26 07:34:21;;;;;;;;;;;;;;;27.42;37.03;99788.84;1431982;89;20876;-81
2022/07/26 07:36:49;;;;;;;;;;;;;;;27.58;36.61;99788.79;1433032;89;20488;-81
2022/07/26 07:39:15;;;;;;;;;;;;;;;27.73;36.66;99789.29;1419128;90;20427;-81
2022/07/26 07:41:42;;;;;;;;;;;;;;;27.85;34.77;99787.09;1427512;91;20421;-81
2022/07/26 07:44:08;;;;;;;;;;;;;;;27.99;35.43;99794.13;1423324;91;20309;-81
2022/07/26 07:46:34;;;;;;;;;;;;;;;28.12;35.52;99792.17;1431454;90;20295;-81
2022/07/26 07:49:01;;;;;;;;;;;;;;;28.22;33.87;99793.46;1423654;90;20290;-81
2022/07/26 07:51:27;;;;;;;;;;;;;;;28.35;34.46;99795.58;1427945;91;20296;-81
2022/07/26 07:53:54;;;;;;;;;;;;;;;28.51;33.54;99790.06;1422495;91;20407;-81
2022/07/26 07:56:20;;;;;;;;;;;;;;;28.65;33.91;99786.17;1416930;90;20296;-81
2022/07/26 07:58:46;;;;;;;;;;;;;;;28.78;32.88;99791.80;1424875;90;20314;-81
2022/07/26 08:01:14;;;;;;;;;;;;;;;28.91;33.11;99794.41;1425666;90;20288;-82
2022/07/26 08:03:42;;;;;;;;;;;;;;;29.03;32.77;99797.34;1431537;90;20332;-81
2022/07/26 08:06:09;;;;;;;;;;;;;;;29.16;33.41;99797.50;1427353;91;20912;-81
2022/07/26 08:08:36;;;;;;;;;;;;;;;29.28;31.46;99808.02;1405134;91;20899;-80
2022/07/26 08:11:03;;;;;;;;;;;;;;;29.35;30.22;99806.34;1429049;90;20319;-91
2022/07/26 08:13:29;;;;;;;;;;;;;;;29.39;28.19;99807.38;1422981;91;20502;-92
2022/07/26 08:15:56;;;;;;;;;;;;;;;29.50;29.91;99810.27;1427580;90;20443;-92
2022/07/26 08:18:23;;;;;;;;;;;;;;;29.62;30.40;99808.52;1424729;91;20693;-91
2022/07/26 08:20:52;;;;;;;;;;;;;;;29.71;30.19;99809.53;1420979;91;20302;-96
2022/07/26 08:23:20;;;;;;;;;;;;;;;29.79;29.44;99799.35;1427620;90;20303;-93
2022/07/26 08:25:46;;;;;;;;;;;;;;;29.91;29.58;99809.84;1420287;91;20311;-92
2022/07/26 08:28:12;;;;;;;;;;;;;;;29.98;30.28;99804.87;1419009;91;20377;-92
2022/07/26 08:30:38;;;;;;;;;;;;;;;29.96;26.26;99795.34;1423804;91;20334;-92
2022/07/26 08:33:05;;;;;;;;;;;;;;;30.11;30.07;99789.13;1423742;90;20339;-94
2022/07/26 08:35:31;;;;;;;;;;;;;;;30.24;28.78;99786.80;1424535;91;20915;-93
2022/07/26 08:37:58;;;;;;;;;;;;;;;30.34;29.34;99788.05;1399528;91;20296;-92
2022/07/26 08:40:25;;;;;;;;;;;;;;;30.40;28.13;99784.12;1423819;91;21383;-94
2022/07/26 08:42:54;;;;;;;;;;;;;;;30.46;27.78;99781.58;1425953;90;20311;-94
2022/07/26 08:45:24;;;;;;;;;;;;;;;30.53;27.00;99780.67;1426353;90;20942;-93
2022/07/26 08:47:57;;;;;;;;;;;;;;;30.70;28.93;99781.52;1419822;91;20816;-94
2022/07/26 08:50:24;;;;;;;;;;;;;;;30.84;26.36;99780.20;1413857;90;20417;-92
2022/07/26 08:53:07;;;;;;;;;;;;;;;30.96;28.10;99782.50;1351258;92;20406;-94
2022/07/26 08:55:37;;;;;;;;;;;;;;;31.02;27.56;99779.94;1451891;91;20296;-93
2022/07/26 08:58:04;;;;;;;;;;;;;;;31.09;26.70;99785.00;1504011;90;20290;-94
2022/07/26 09:00:31;;;;;;;;;;;;;;;31.19;27.59;99784.84;1426289;90;20436;-91
2022/07/26 09:02:59;;;;;;;;;;;;;;;31.25;26.92;99781.70;1423407;90;20384;-93
2022/07/26 09:05:28;;;;;;;;;;;;;;;31.36;27.91;99774.17;1414325;90;20347;-92
2022/07/26 09:07:55;;;;;;;;;;;;;;;31.51;28.04;99788.66;1412915;90;21837;-92
2022/07/26 09:10:21;;;;;;;;;;;;;;;31.66;27.30;99779.59;1424863;91;20311;-91
2022/07/26 09:12:54;;;;;;;;;;;;;;;31.77;27.66;99787.05;1426271;90;20295;-92
2022/07/26 09:15:22;;;;;;;;;;;;;;;31.81;26.63;99785.31;1426878;90;20310;-93
2022/07/26 09:17:55;;;;;;;;;;;;;;;31.86;26.73;99781.11;1419184;91;20355;-93
2022/07/26 09:20:26;;;;;;;;;;;;;;;31.95;26.85;99773.59;1426514;91;20295;-93
2022/07/26 09:23:15;;;;;;;;;;;;;;;32.04;26.95;99777.22;1427902;90;20495;-92
2022/07/26 09:25:41;;;;;;;;;;;;;;;32.07;26.33;99771.13;1429595;90;20466;-94
2022/07/26 09:28:25;;;;;;;;;;;;;;;32.16;26.84;99772.02;1428850;88;20404;-95
2022/07/26 09:30:59;;;;;;;;;;;;;;;32.18;26.31;99773.90;1411025;91;20319;-94
2022/07/26 09:33:25;;;;;;;;;;;;;;;32.18;25.12;99777.20;1420027;90;20310;-95
2022/07/26 09:36:05;;;;;;;;;;;;;;;32.41;26.55;99771.21;1434009;90;20309;-95
2022/07/26 09:38:40;;;;;;;;;;;;;;;32.50;26.17;99761.16;1415822;91;20410;-94
2022/07/26 09:41:21;;;;;;;;;;;;;;;32.55;24.81;99766.53;1430459;90;20317;-86
2022/07/26 09:43:48;;;;;;;;;;;;;;;32.58;25.91;99761.23;1424241;90;20742;-89
2022/07/26 09:46:14;;;;;;;;;;;;;;;32.63;24.26;99771.27;1448672;90;20263;-89
2022/07/26 09:48:41;;;;;;;;;;;;;;;32.73;25.33;99768.27;1441398;90;20305;-89
2022/07/26 09:51:07;;;;;;;;;;;;;;;32.86;23.64;99776.72;1431371;90;20251;-90
2022/07/26 09:53:43;;;;;;;;;;;;;;;32.99;25.38;99774.52;1448020;90;20303;-89
2022/07/26 09:56:09;;;;;;;;;;;;;;;33.02;24.77;99771.15;1458801;89;20351;-90
2022/07/26 09:58:36;;;;;;;;;;;;;;;33.06;23.78;99765.84;1455031;90;20307;-89
2022/07/26 10:01:04;;;;;;;;;;;;;;;33.07;23.80;99763.37;1458876;89;20980;-89
2022/07/26 10:03:32;;;;;;;;;;;;;;;33.23;24.84;99762.66;1405675;91;20862;-89
2022/07/26 10:05:58;;;;;;;;;;;;;;;33.35;25.10;99755.20;1424079;90;20274;-89
2022/07/26 10:08:25;;;;;;;;;;;;;;;33.50;24.31;99760.83;1427098;90;20325;-89
2022/07/26 10:10:57;;;;;;;;;;;;;;;33.55;23.25;99764.00;1436742;90;20308;-89
2022/07/26 10:13:25;;;;;;;;;;;;;;;33.61;23.11;99760.02;1436256;90;20897;-89
2022/07/26 10:15:51;;;;;;;;;;;;;;;33.68;23.61;99761.16;1398892;91;20811;-89
2022/07/26 10:18:39;;;;;;;;;;;;;;;33.77;23.52;99754.89;1401072;91;20465;-89
2022/07/26 10:21:25;;;;;;;;;;;;;;;33.84;23.25;99754.67;1420753;91;20294;-90
2022/07/26 10:23:57;;;;;;;;;;;;;;;33.79;22.08;99747.16;1423558;91;20354;-90
2022/07/26 10:26:36;;;;;;;;;;;;;;;33.84;23.52;99751.13;1425130;90;20823;-90
2022/07/26 10:29:20;;;;;;;;;;;;;;;33.88;23.02;99754.84;1423698;91;20472;-88
2022/07/26 10:31:47;;;;;;;;;;;;;;;33.87;23.00;99749.12;1439939;89;20368;-88
2022/07/26 10:34:33;;;;;;;;;;;;;;;34.03;23.11;99740.64;1436472;89;20285;-90
2022/07/26 10:37:02;;;;;;;;;;;;;;;34.22;23.03;99736.84;1439460;89;20501;-88
2022/07/26 10:39:30;;;;;;;;;;;;;;;34.38;22.34;99743.44;1443076;89;20281;-90
2022/07/26 10:42:02;;;;;;;;;;;;;;;34.52;22.54;99744.08;1436254;89;20433;-90
2022/07/26 10:44:30;;;;;;;;;;;;;;;34.63;22.40;99747.92;1412511;90;20311;-89
2022/07/26 10:47:04;;;;;;;;;;;;;;;34.58;22.58;99742.84;1498970;90;20409;-89
2022/07/26 10:49:38;;;;;;;;;;;;;;;34.44;22.66;99750.41;1327200;92;20292;-89
2022/07/26 10:52:29;;;;;;;;;;;;;;;34.36;21.63;99741.61;1423523;91;21208;-88
2022/07/26 10:55:03;;;;;;;;;;;;;;;34.38;23.05;99735.20;1409483;90;21204;-89
2022/07/26 10:57:35;;;;;;;;;;;;;;;34.51;23.40;99734.81;1400265;92;20797;-89
2022/07/26 11:00:09;;;;;;;;;;;;;;;34.65;22.84;99725.85;1439901;89;20317;-89
2022/07/26 11:02:36;;;;;;;;;;;;;;;34.70;22.81;99735.85;1435970;89;20287;-89
2022/07/26 11:05:15;;;;;;;;;;;;;;;34.88;22.81;99727.83;1415234;89;21536;-91
2022/07/26 11:07:53;;;;;;;;;;;;;;;35.06;21.79;99725.06;1434251;89;20407;-88
2022/07/26 11:10:35;;;;;;;;;;;;;;;34.94;21.65;99721.02;1440624;89;21624;-90
2022/07/26 11:13:06;;;;;;;;;;;;;;;34.84;21.07;99711.73;1441074;89;20332;-91
2022/07/26 11:15:34;;;;;;;;;;;;;;;34.92;21.87;99726.59;1416274;91;20301;-88
2022/07/26 11:18:16;;;;;;;;;;;;;;;34.93;20.94;99715.84;1411673;91;20430;-87
2022/07/26 11:20:46;;;;;;;;;;;;;;;34.96;22.04;99713.26;1417256;91;20966;-87
2022/07/26 11:23:29;;;;;;;;;;;;;;;35.14;21.81;99714.03;1399457;91;20327;-87
2022/07/26 11:26:07;;;;;;;;;;;;;;;35.28;21.34;99709.70;1393705;92;20392;-87
2022/07/26 11:28:57;;;;;;;;;;;;;;;35.21;20.74;99707.44;1407328;92;20408;-87
2022/07/26 11:31:27;;;;;;;;;;;;;;;35.32;21.63;99704.33;1398961;92;20304;-87
2022/07/26 11:33:54;;;;;;;;;;;;;;;35.38;21.58;99701.05;1389862;93;20308;-87
2022/07/26 11:36:41;;;;;;;;;;;;;;;35.47;20.66;99687.25;1411978;90;20319;-87
2022/07/26 11:39:12;;;;;;;;;;;;;;;35.44;20.21;99698.35;1424849;90;20444;-87
2022/07/26 11:41:40;;;;;;;;;;;;;;;35.41;20.77;99694.89;1432305;89;20408;-87
2022/07/26 11:44:08;;;;;;;;;;;;;;;35.42;20.52;99695.14;1460454;89;20344;-87
2022/07/26 11:46:39;;;;;;;;;;;;;;;35.46;20.55;99690.58;1430851;89;20275;-89
2022/07/26 11:49:17;;;;;;;;;;;;;;;35.49;20.04;99688.53;1441573;89;20399;-87
2022/07/26 11:51:52;;;;;;;;;;;;;;;35.49;21.32;99684.98;1465086;89;20263;-88
2022/07/26 11:54:19;;;;;;;;;;;;;;;35.47;19.74;99681.17;1450977;89;20465;-88
2022/07/26 11:56:57;;;;;;;;;;;;;;;35.45;20.32;99671.67;1436038;91;20331;-88
2022/07/26 11:59:25;;;;;;;;;;;;;;;35.32;19.97;99673.50;1424261;91;20312;-87
2022/07/26 12:01:52;;;;;;;;;;;;;;;35.41;20.77;99666.00;1448962;89;20345;-88
2022/07/26 12:04:26;;;;;;;;;;;;;;;35.59;21.27;99670.05;1442591;89;20993;-88
2022/07/26 12:06:53;;;;;;;;;;;;;;;35.70;21.53;99661.65;1419069;89;20431;-86
2022/07/26 12:09:32;;;;;;;;;;;;;;;35.80;20.25;99658.52;1439658;89;20359;-86
2022/07/26 12:11:59;;;;;;;;;;;;;;;35.92;21.33;99655.82;1444203;89;20392;-85
2022/07/26 12:14:29;;;;;;;;;;;;;;;36.05;19.57;99660.03;1435234;89;20284;-87
2022/07/26 12:16:55;;;;;;;;;;;;;;;35.97;20.29;99659.53;1450967;89;20411;-87
2022/07/26 12:22:25;;;;;;;;;;;;;;;36.09;19.60;99659.61;1429858;89;20295;-85
2022/07/26 12:24:57;;;;;;;;;;;;;;;36.07;19.02;99653.62;1441469;89;20351;-85
2022/07/26 12:27:25;;;;;;;;;;;;;;;36.17;20.13;99655.16;1429665;89;20400;-84
2022/07/26 12:29:53;;;;;;;;;;;;;;;36.29;19.78;99648.34;1423216;90;20317;-84
2022/07/26 12:32:32;;;;;;;;;;;;;;;36.30;19.23;99646.61;1408216;91;20312;-85
2022/07/26 12:35:01;;;;;;;;;;;;;;;36.33;19.14;99646.50;1413699;92;20409;-84
2022/07/26 12:37:29;;;;;;;;;;;;;;;36.39;19.54;99652.03;1398924;94;20864;-84
2022/07/26 12:40:11;;;;;;;;;;;;;;;36.55;19.57;99632.95;1388949;93;20284;-84
2022/07/26 12:42:39;;;;;;;;;;;;;;;36.71;19.10;99636.63;1378451;95;21627;-84
2022/07/26 12:45:08;;;;;;;;;;;;;;;36.75;19.04;99632.06;1440259;90;20821;-85
2022/07/26 12:47:35;;;;;;;;;;;;;;;36.80;18.66;99634.60;1440422;90;20950;-84
2022/07/26 12:50:03;;;;;;;;;;;;;;;36.84;19.77;99622.89;1421095;91;20298;-85
2022/07/26 12:52:29;;;;;;;;;;;;;;;36.86;18.75;99626.91;1420072;91;20408;-84
2022/07/26 12:54:56;;;;;;;;;;;;;;;36.99;19.18;99624.95;1405718;91;20296;-84
2022/07/26 12:57:22;;;;;;;;;;;;;;;37.16;19.33;99624.75;1419389;91;20290;-84
2022/07/26 12:59:48;;;;;;;;;;;;;;;37.18;17.69;99619.70;1389809;92;20432;-84